createdAt,value
2023-04-02T00:01:21.198Z,3.19
2023-04-02T00:04:22.792Z,3.14
2023-04-02T00:07:15.610Z,3.14
2023-04-02T00:09:48.582Z,3.15
2023-04-02T00:12:25.260Z,3.15
2023-04-02T00:15:00.608Z,3.15
2023-04-02T00:17:37.309Z,3.14
2023-04-02T00:20:22.850Z,3.12
2023-04-02T00:22:59.016Z,3.13
2023-04-02T00:25:43.788Z,3.14
2023-04-02T00:28:21.152Z,3.13
2023-04-02T00:31:01.662Z,3.10
2023-04-02T00:33:37.023Z,3.09
2023-04-02T00:36:14.175Z,3.10
2023-04-02T00:38:49.876Z,3.17
2023-04-02T00:41:30.841Z,3.15
2023-04-02T00:44:07.634Z,3.12
2023-04-02T00:47:06.300Z,3.07
2023-04-02T00:49:43.601Z,2.97
2023-04-02T00:52:20.751Z,3.00
2023-04-02T00:55:04.969Z,3.02
2023-04-02T00:57:40.302Z,3.01
2023-04-02T01:00:26.165Z,3.00
2023-04-02T01:03:37.415Z,2.99
2023-04-02T01:06:19.910Z,2.95
2023-04-02T01:09:18.645Z,2.94
2023-04-02T01:12:12.950Z,2.93
2023-04-02T01:14:58.280Z,2.87
2023-04-02T01:18:03.532Z,2.86
2023-04-02T01:20:59.327Z,2.84
2023-04-02T01:23:42.298Z,2.84
2023-04-02T01:26:25.484Z,2.84
2023-04-02T01:29:10.377Z,2.86
2023-04-02T01:31:47.412Z,2.86
2023-04-02T01:34:26.825Z,2.88
2023-04-02T01:37:15.345Z,2.89
2023-04-02T01:40:06.929Z,2.90
2023-04-02T01:42:47.216Z,2.89
2023-04-02T01:45:24.720Z,2.89
2023-04-02T01:48:01.075Z,2.88
2023-04-02T01:50:40.511Z,2.92
2023-04-02T01:53:17.905Z,2.90
2023-04-02T01:55:55.408Z,2.94
2023-04-02T01:58:33.243Z,2.98
2023-04-02T02:01:15.489Z,3.02
2023-04-02T02:03:51.828Z,2.99
2023-04-02T02:06:28.677Z,2.98
2023-04-02T02:09:15.151Z,2.96
2023-04-02T02:11:51.609Z,2.94
2023-04-02T02:14:30.257Z,2.95
2023-04-02T02:17:14.121Z,2.94
2023-04-02T02:19:58.459Z,2.90
2023-04-02T02:22:35.631Z,2.86
2023-04-02T02:25:16.470Z,2.83
2023-04-02T02:28:10.689Z,2.82
2023-04-02T02:30:50.105Z,2.84
2023-04-02T02:33:29.248Z,2.84
2023-04-02T02:36:14.358Z,2.88
2023-04-02T02:39:05.361Z,2.86
2023-04-02T02:41:50.529Z,2.84
2023-04-02T02:44:29.206Z,2.86
2023-04-02T02:47:07.091Z,2.86
2023-04-02T02:49:47.074Z,2.88
2023-04-02T02:52:27.017Z,2.87
2023-04-02T02:55:14.161Z,2.82
2023-04-02T02:58:01.382Z,2.83
2023-04-02T03:00:42.258Z,2.83
2023-04-02T03:03:20.219Z,2.82
2023-04-02T03:06:05.204Z,2.82
2023-04-02T03:08:44.818Z,2.83
2023-04-02T03:11:30.127Z,2.83
2023-04-02T03:14:15.263Z,2.82
2023-04-02T03:16:59.926Z,2.80
2023-04-02T03:19:44.811Z,2.80
2023-04-02T03:22:25.898Z,2.81
2023-04-02T03:25:05.511Z,2.81
2023-04-02T03:27:47.233Z,2.81
2023-04-02T03:30:35.036Z,2.80
2023-04-02T03:33:16.282Z,2.81
2023-04-02T03:36:00.101Z,2.80
2023-04-02T03:38:38.305Z,2.79
2023-04-02T03:41:21.280Z,2.80
2023-04-02T03:44:04.442Z,2.82
2023-04-02T03:46:46.967Z,2.83
2023-04-02T03:49:30.978Z,2.83
2023-04-02T03:52:13.449Z,2.82
2023-04-02T03:54:54.037Z,2.78
2023-04-02T03:57:37.151Z,2.80
2023-04-02T04:00:23.334Z,2.83
2023-04-02T04:03:08.954Z,2.80
2023-04-02T04:05:51.068Z,2.78
2023-04-02T04:08:34.578Z,2.80
2023-04-02T04:11:18.085Z,2.82
2023-04-02T04:13:58.442Z,2.79
2023-04-02T04:16:43.164Z,2.79
2023-04-02T04:19:24.973Z,2.78
2023-04-02T04:22:15.212Z,2.76
2023-04-02T04:24:50.460Z,2.72
2023-04-02T04:27:35.239Z,2.70
2023-04-02T04:30:24.652Z,2.67
2023-04-02T04:33:04.925Z,2.70
2023-04-02T04:35:47.504Z,2.71
2023-04-02T04:38:33.883Z,2.74
2023-04-02T04:41:18.652Z,2.76
2023-04-02T04:43:58.979Z,2.81
2023-04-02T04:46:39.320Z,2.83
2023-04-02T04:49:24.059Z,2.82
2023-04-02T04:52:04.259Z,2.84
2023-04-02T04:54:42.824Z,2.86
2023-04-02T04:57:32.820Z,2.86
2023-04-02T05:00:14.632Z,2.87
2023-04-02T05:02:57.559Z,2.87
2023-04-02T05:05:40.616Z,2.85
2023-04-02T05:08:24.280Z,2.87
2023-04-02T05:11:07.336Z,2.83
2023-04-02T05:13:50.989Z,2.84
2023-04-02T05:16:42.905Z,2.83
2023-04-02T05:19:27.135Z,2.82
2023-04-02T05:22:08.148Z,2.80
2023-04-02T05:25:06.236Z,2.76
2023-04-02T05:27:49.039Z,2.72
2023-04-02T05:30:42.372Z,2.75
2023-04-02T05:33:35.688Z,2.74
2023-04-02T05:36:23.120Z,2.70
2023-04-02T05:39:00.468Z,2.72
2023-04-02T05:41:44.771Z,2.68
2023-04-02T05:44:28.784Z,2.67
2023-04-02T05:47:10.688Z,2.60
2023-04-02T05:49:52.130Z,2.55
2023-04-02T05:52:31.928Z,2.50
2023-04-02T05:55:46.259Z,2.45
2023-04-02T05:58:36.381Z,2.43
2023-04-02T06:01:35.508Z,2.37
2023-04-02T06:04:24.735Z,2.32
2023-04-02T06:07:08.130Z,2.29
2023-04-02T06:09:50.782Z,2.26
2023-04-02T06:12:33.933Z,2.25
2023-04-02T06:15:15.208Z,2.27
2023-04-02T06:17:54.448Z,2.26
2023-04-02T06:20:31.050Z,2.28
2023-04-02T06:23:12.828Z,2.31
2023-04-02T06:25:53.968Z,2.24
2023-04-02T06:28:35.315Z,2.29
2023-04-02T06:31:20.278Z,2.27
2023-04-02T06:33:59.466Z,2.23
2023-04-02T06:36:36.518Z,2.20
2023-04-02T06:39:21.925Z,2.15
2023-04-02T06:42:03.951Z,2.13
2023-04-02T06:44:59.848Z,2.17
2023-04-02T06:48:10.519Z,2.21
2023-04-02T06:50:54.682Z,2.28
2023-04-02T06:53:37.057Z,2.35
2023-04-02T06:56:22.714Z,2.39
2023-04-02T06:58:59.275Z,2.40
2023-04-02T07:01:40.899Z,2.43
2023-04-02T07:04:16.890Z,2.48
2023-04-02T07:06:54.273Z,2.50
2023-04-02T07:09:31.524Z,2.58
2023-04-02T07:12:18.218Z,2.64
2023-04-02T07:14:53.256Z,2.73
2023-04-02T07:17:27.690Z,2.72
2023-04-02T07:20:04.096Z,2.69
2023-04-02T07:22:40.682Z,2.68
2023-04-02T07:25:18.117Z,2.72
2023-04-02T07:27:53.941Z,2.74
2023-04-02T07:30:30.222Z,2.66
2023-04-02T07:33:05.086Z,2.58
2023-04-02T07:35:43.982Z,2.57
2023-04-02T07:38:21.442Z,2.59
2023-04-02T07:40:57.580Z,2.59
2023-04-02T07:43:39.881Z,2.58
2023-04-02T07:46:18.582Z,2.61
2023-04-02T07:48:54.470Z,2.63
2023-04-02T07:51:32.352Z,2.68
2023-04-02T07:54:11.430Z,2.70
2023-04-02T07:56:47.617Z,2.69
2023-04-02T07:59:22.335Z,2.72
2023-04-02T08:01:58.123Z,2.74
2023-04-02T08:04:34.601Z,2.79
2023-04-02T08:07:09.069Z,2.82
2023-04-02T08:09:44.666Z,2.86
2023-04-02T08:12:19.372Z,2.91
2023-04-02T08:14:54.432Z,2.96
2023-04-02T08:17:32.841Z,2.96
2023-04-02T08:20:24.831Z,3.00
2023-04-02T08:23:03.454Z,2.91
2023-04-02T08:25:39.914Z,2.90
2023-04-02T08:28:15.632Z,2.94
2023-04-02T08:30:52.542Z,2.98
2023-04-02T08:33:30.049Z,3.01
2023-04-02T08:36:05.194Z,3.01
2023-04-02T08:38:41.185Z,3.08
2023-04-02T08:41:27.970Z,3.11
2023-04-02T08:44:43.462Z,3.11
2023-04-02T08:47:22.597Z,3.04
2023-04-02T08:50:05.137Z,3.02
2023-04-02T08:52:49.176Z,3.00
2023-04-02T08:55:51.342Z,2.98
2023-04-02T08:58:49.439Z,2.96
2023-04-02T09:01:35.865Z,2.97
2023-04-02T09:04:19.122Z,2.97
2023-04-02T09:07:03.426Z,2.97
2023-04-02T09:09:42.854Z,2.98
2023-04-02T09:12:32.228Z,3.05
2023-04-02T09:15:29.563Z,3.09
2023-04-02T09:18:17.248Z,3.10
2023-04-02T09:20:55.905Z,3.15
2023-04-02T09:23:34.658Z,3.20
2023-04-02T09:26:28.210Z,3.22
2023-04-02T09:29:38.332Z,3.24
2023-04-02T09:32:55.892Z,3.26
2023-04-02T09:35:34.483Z,3.29
2023-04-02T09:38:24.258Z,3.34
2023-04-02T09:41:04.848Z,3.36
2023-04-02T09:43:41.541Z,3.46
2023-04-02T09:46:33.833Z,3.54
2023-04-02T09:49:18.674Z,3.60
2023-04-02T09:52:20.129Z,3.63
2023-04-02T09:55:28.962Z,3.66
2023-04-02T09:58:19.104Z,3.67
2023-04-02T10:00:57.604Z,3.68
2023-04-02T10:03:38.757Z,3.71
2023-04-02T10:06:20.904Z,3.76
2023-04-02T10:09:25.066Z,3.80
2023-04-02T10:12:06.584Z,3.78
2023-04-02T10:14:44.931Z,3.82
2023-04-02T10:17:24.536Z,3.85
2023-04-02T10:20:08.330Z,3.86
2023-04-02T10:22:48.952Z,3.86
2023-04-02T10:25:28.914Z,3.88
2023-04-02T10:28:15.180Z,3.88
2023-04-02T10:31:02.790Z,3.89
2023-04-02T10:33:40.742Z,3.90
2023-04-02T10:36:30.779Z,3.91
2023-04-02T10:39:15.667Z,3.87
2023-04-02T10:41:57.811Z,3.89
2023-04-02T10:44:44.300Z,3.92
2023-04-02T10:47:32.556Z,3.98
2023-04-02T10:50:24.637Z,4.03
2023-04-02T10:53:09.091Z,4.05
2023-04-02T10:55:48.489Z,4.08
2023-04-02T10:58:28.298Z,4.09
2023-04-02T11:01:10.381Z,4.08
2023-04-02T11:03:51.194Z,4.06
2023-04-02T11:06:29.874Z,4.09
2023-04-02T11:09:09.743Z,4.16
2023-04-02T11:11:53.018Z,4.16
2023-04-02T11:14:29.923Z,4.19
2023-04-02T11:17:05.825Z,4.25
2023-04-02T11:19:40.260Z,4.24
2023-04-02T11:22:21.956Z,4.29
2023-04-02T11:25:03.496Z,4.29
2023-04-02T11:27:38.579Z,4.28
2023-04-02T11:30:31.711Z,4.29
2023-04-02T11:33:45.436Z,4.27
2023-04-02T11:36:56.049Z,4.31
2023-04-02T11:40:22.729Z,4.35
2023-04-02T11:43:19.799Z,4.36
2023-04-02T11:46:03.582Z,4.36
2023-04-02T11:48:39.481Z,4.37
2023-04-02T11:51:43.492Z,4.40
2023-04-02T11:54:39.396Z,4.41
2023-04-02T11:57:24.915Z,4.46
2023-04-02T12:00:18.586Z,4.47
2023-04-02T12:03:12.723Z,4.52
2023-04-02T12:06:00.448Z,4.52
2023-04-02T12:08:54.689Z,4.56
2023-04-02T12:11:43.647Z,4.64
2023-04-02T12:15:00.119Z,4.68
2023-04-02T12:17:37.835Z,4.76
2023-04-02T12:20:24.523Z,4.84
2023-04-02T12:23:01.153Z,4.93
2023-04-02T12:25:40.869Z,4.98
2023-04-02T12:28:21.415Z,5.03
2023-04-02T12:31:14.057Z,5.05
2023-04-02T12:33:53.113Z,5.10
2023-04-02T12:36:28.315Z,5.14
2023-04-02T12:39:04.293Z,5.11
2023-04-02T12:41:42.469Z,5.11
2023-04-02T12:44:23.397Z,5.15
2023-04-02T12:46:59.688Z,5.25
2023-04-02T12:49:40.259Z,5.33
2023-04-02T12:52:18.634Z,5.36
2023-04-02T12:55:00.333Z,5.41
2023-04-02T12:57:49.112Z,5.48
2023-04-02T13:00:39.210Z,5.53
2023-04-02T13:03:26.017Z,5.54
2023-04-02T13:06:05.654Z,5.50
2023-04-02T13:08:45.301Z,5.48
2023-04-02T13:11:22.851Z,5.46
2023-04-02T13:14:03.419Z,5.41
2023-04-02T13:16:48.983Z,5.43
2023-04-02T13:19:52.148Z,5.45
2023-04-02T13:22:35.487Z,5.47
2023-04-02T13:25:12.523Z,5.49
2023-04-02T13:27:48.256Z,5.50
2023-04-02T13:30:27.291Z,5.51
2023-04-02T13:33:05.027Z,5.51
2023-04-02T13:35:40.486Z,5.56
2023-04-02T13:38:18.155Z,5.55
2023-04-02T13:40:54.986Z,5.53
2023-04-02T13:43:35.188Z,5.47
2023-04-02T13:46:16.741Z,5.46
2023-04-02T13:48:50.941Z,5.42
2023-04-02T13:51:33.497Z,5.42
2023-04-02T13:54:14.023Z,5.46
2023-04-02T13:56:50.042Z,5.45
2023-04-02T13:59:24.862Z,5.41
2023-04-02T14:02:08.456Z,5.37
2023-04-02T14:04:51.006Z,5.36
2023-04-02T14:07:53.072Z,5.37
2023-04-02T14:10:41.372Z,5.32
2023-04-02T14:13:37.838Z,5.29
2023-04-02T14:16:29.440Z,5.25
2023-04-02T14:19:20.033Z,5.23
2023-04-02T14:22:05.806Z,5.20
2023-04-02T14:24:51.242Z,5.23
2023-04-02T14:27:40.344Z,5.25
2023-04-02T14:30:24.557Z,5.22
2023-04-02T14:33:10.831Z,5.19
2023-04-02T14:35:48.120Z,5.17
2023-04-02T14:38:27.320Z,5.17
2023-04-02T14:41:06.895Z,5.21
2023-04-02T14:43:47.360Z,5.23
2023-04-02T14:46:22.640Z,5.19
2023-04-02T14:49:02.491Z,5.17
2023-04-02T14:51:44.403Z,5.16
2023-04-02T14:54:31.320Z,5.11
2023-04-02T14:57:17.952Z,5.09
2023-04-02T15:00:00.441Z,5.08
2023-04-02T15:02:43.743Z,5.04
2023-04-02T15:05:24.568Z,5.02
2023-04-02T15:08:05.145Z,5.03
2023-04-02T15:10:43.312Z,5.05
2023-04-02T15:13:22.600Z,5.12
2023-04-02T15:16:00.384Z,5.12
2023-04-02T15:18:35.849Z,5.05
2023-04-02T15:21:32.263Z,5.05
2023-04-02T15:24:18.591Z,4.99
2023-04-02T15:27:07.124Z,4.98
2023-04-02T15:29:51.059Z,4.94
2023-04-02T15:32:32.033Z,4.94
2023-04-02T15:35:22.872Z,4.91
2023-04-02T15:38:06.549Z,4.86
2023-04-02T15:41:05.232Z,4.88
2023-04-02T15:43:46.403Z,4.88
2023-04-02T15:46:28.351Z,4.87
2023-04-02T15:49:19.494Z,4.91
2023-04-02T15:52:07.998Z,4.92
2023-04-02T15:55:03.143Z,4.93
2023-04-02T15:57:59.252Z,4.88
2023-04-02T16:00:38.925Z,4.83
2023-04-02T16:03:42.246Z,4.80
2023-04-02T16:06:33.330Z,4.75
2023-04-02T16:09:20.473Z,4.72
2023-04-02T16:12:00.519Z,4.68
2023-04-02T16:14:36.522Z,4.68
2023-04-02T16:17:25.031Z,4.69
2023-04-02T16:20:06.793Z,4.68
2023-04-02T16:22:59.491Z,4.68
2023-04-02T16:25:42.038Z,4.68
2023-04-02T16:28:26.335Z,4.68
2023-04-02T16:31:12.201Z,4.67
2023-04-02T16:34:03.816Z,4.66
2023-04-02T16:36:52.865Z,4.62
2023-04-02T16:39:39.922Z,4.59
2023-04-02T16:42:25.899Z,4.62
2023-04-02T16:45:11.061Z,4.60
2023-04-02T16:48:11.900Z,4.56
2023-04-02T16:50:58.389Z,4.47
2023-04-02T16:53:58.414Z,4.39
2023-04-02T16:56:50.831Z,4.34
2023-04-02T16:59:36.001Z,4.28
2023-04-02T17:02:25.697Z,4.21
2023-04-02T17:05:18.688Z,4.16
2023-04-02T17:08:01.979Z,4.10
2023-04-02T17:10:48.043Z,4.01
2023-04-02T17:13:43.292Z,3.95
2023-04-02T17:16:22.518Z,3.87
2023-04-02T17:18:59.396Z,3.84
2023-04-02T17:21:35.615Z,3.80
2023-04-02T17:24:23.787Z,3.76
2023-04-02T17:27:02.724Z,3.71
2023-04-02T17:29:43.756Z,3.68
2023-04-02T17:32:23.845Z,3.65
2023-04-02T17:35:00.840Z,3.63
2023-04-02T17:37:44.857Z,3.58
2023-04-02T17:40:28.315Z,3.51
2023-04-02T17:43:15.251Z,3.44
2023-04-02T17:45:55.006Z,3.41
2023-04-02T17:48:37.470Z,3.38
2023-04-02T17:51:19.432Z,3.36
2023-04-02T17:54:06.990Z,3.27
2023-04-02T17:56:54.562Z,3.21
2023-04-02T18:00:04.119Z,3.17
2023-04-02T18:03:24.516Z,3.09
2023-04-02T18:06:09.128Z,3.03
2023-04-02T18:08:56.402Z,3.02
2023-04-02T18:11:39.163Z,2.99
2023-04-02T18:14:29.148Z,2.96
2023-04-02T18:17:12.551Z,2.94
2023-04-02T18:19:53.380Z,2.89
2023-04-02T18:22:41.926Z,2.84
2023-04-02T18:25:29.060Z,2.81
2023-04-02T18:28:22.679Z,2.80
2023-04-02T18:31:01.551Z,2.77
2023-04-02T18:33:52.809Z,2.74
2023-04-02T18:36:39.753Z,2.70
2023-04-02T18:39:28.169Z,2.67
2023-04-02T18:42:09.115Z,2.62
2023-04-02T18:44:56.782Z,2.58
2023-04-02T18:47:39.948Z,2.54
2023-04-02T18:50:46.585Z,2.52
2023-04-02T18:53:24.388Z,2.48
2023-04-02T18:56:05.161Z,2.45
2023-04-02T18:58:52.756Z,2.44
2023-04-02T19:01:35.180Z,2.42
2023-04-02T19:04:15.161Z,2.40
2023-04-02T19:06:55.722Z,2.40
2023-04-02T19:09:37.192Z,2.36
2023-04-02T19:12:21.969Z,2.34
2023-04-02T19:15:00.145Z,2.32
2023-04-02T19:17:44.354Z,2.29
2023-04-02T19:20:29.501Z,2.28
2023-04-02T19:23:21.728Z,2.26
2023-04-02T19:26:04.957Z,2.23
2023-04-02T19:28:48.021Z,2.21
2023-04-02T19:31:45.513Z,2.14
2023-04-02T19:34:28.160Z,2.12
2023-04-02T19:37:12.832Z,2.11
2023-04-02T19:40:21.796Z,2.08
2023-04-02T19:42:59.384Z,2.04
2023-04-02T19:45:46.687Z,2.06
2023-04-02T19:48:24.320Z,2.04
2023-04-02T19:51:03.795Z,2.00
2023-04-02T19:53:39.092Z,1.98
2023-04-02T19:56:16.646Z,1.97
2023-04-02T19:58:51.972Z,1.95
2023-04-02T20:01:26.981Z,1.91
2023-04-02T20:04:01.922Z,1.87
2023-04-02T20:06:38.196Z,1.87
2023-04-02T20:09:13.574Z,1.85
2023-04-02T20:11:48.291Z,1.84
2023-04-02T20:14:24.742Z,1.83
2023-04-02T20:17:01.935Z,1.81
2023-04-02T20:19:37.330Z,1.80
2023-04-02T20:22:12.863Z,1.78
2023-04-02T20:24:48.930Z,1.77
2023-04-02T20:27:23.279Z,1.76
2023-04-02T20:29:59.403Z,1.73
2023-04-02T20:32:37.308Z,1.72
2023-04-02T20:35:15.958Z,1.70
2023-04-02T20:37:51.506Z,1.66
2023-04-02T20:40:26.023Z,1.64
2023-04-02T20:43:01.578Z,1.62
2023-04-02T20:45:38.869Z,1.63
2023-04-02T20:48:14.843Z,1.60
2023-04-02T20:50:51.671Z,1.58
2023-04-02T20:53:25.924Z,1.56
2023-04-02T20:56:08.062Z,1.54
2023-04-02T20:58:44.759Z,1.51
2023-04-02T21:01:23.920Z,1.51
2023-04-02T21:04:02.321Z,1.50
2023-04-02T21:06:38.739Z,1.46
2023-04-02T21:09:17.450Z,1.44
2023-04-02T21:11:51.936Z,1.43
2023-04-02T21:14:26.709Z,1.43
2023-04-02T21:17:01.495Z,1.42
2023-04-02T21:19:36.860Z,1.40
2023-04-02T21:22:13.286Z,1.39
2023-04-02T21:24:48.874Z,1.35
2023-04-02T21:27:26.854Z,1.32
2023-04-02T21:30:00.453Z,1.31
2023-04-02T21:32:35.752Z,1.32
2023-04-02T21:35:33.065Z,1.32
2023-04-02T21:38:09.683Z,1.29
2023-04-02T21:40:46.395Z,1.27
2023-04-02T21:43:21.451Z,1.26
2023-04-02T21:45:59.877Z,1.25
2023-04-02T21:48:36.945Z,1.24
2023-04-02T21:51:14.582Z,1.24
2023-04-02T21:53:50.216Z,1.23
2023-04-02T21:56:27.491Z,1.22
2023-04-02T21:59:03.977Z,1.20
2023-04-02T22:01:42.543Z,1.21
2023-04-02T22:04:20.052Z,1.20
2023-04-02T22:06:55.705Z,1.19
2023-04-02T22:09:31.011Z,1.19
2023-04-02T22:12:08.122Z,1.18
2023-04-02T22:14:45.217Z,1.13
2023-04-02T22:17:21.847Z,1.10
2023-04-02T22:19:56.005Z,1.08
2023-04-02T22:22:32.845Z,1.08
2023-04-02T22:25:11.168Z,1.09
2023-04-02T22:27:46.201Z,1.10
2023-04-02T22:30:21.052Z,1.11
2023-04-02T22:32:58.156Z,1.09
2023-04-02T22:35:32.965Z,1.04
2023-04-02T22:38:07.246Z,1.02
2023-04-02T22:40:42.191Z,1.01
2023-04-02T22:43:18.021Z,0.97
2023-04-02T22:45:54.654Z,0.96
2023-04-02T22:48:30.356Z,0.96
2023-04-02T22:51:06.231Z,0.95
2023-04-02T22:53:41.359Z,0.94
2023-04-02T22:56:19.333Z,0.92
2023-04-02T22:58:56.894Z,0.91
2023-04-02T23:01:34.024Z,0.90
2023-04-02T23:04:11.220Z,0.89
2023-04-02T23:06:48.147Z,0.88
2023-04-02T23:09:24.509Z,0.89
2023-04-02T23:11:59.002Z,0.88
2023-04-02T23:14:35.754Z,0.86
2023-04-02T23:17:11.114Z,0.85
2023-04-02T23:19:45.594Z,0.84
2023-04-02T23:22:20.301Z,0.85
2023-04-02T23:24:54.864Z,0.85
2023-04-02T23:27:29.720Z,0.82
2023-04-02T23:30:06.740Z,0.81
2023-04-02T23:32:42.739Z,0.81
2023-04-02T23:35:16.809Z,0.82
2023-04-02T23:37:52.512Z,0.79
2023-04-02T23:40:28.591Z,0.80
2023-04-02T23:43:03.752Z,0.79
2023-04-02T23:45:39.727Z,0.77
2023-04-02T23:48:14.429Z,0.77
2023-04-02T23:50:50.860Z,0.78
2023-04-02T23:53:25.502Z,0.76
2023-04-02T23:56:01.209Z,0.74
2023-04-02T23:58:36.904Z,0.73
